Time;durP1;ratioP1;P1;durP2;ratioP2;P2;SDS_P1;SDS_P2;PMS_P1;PMS_P2;Temp;Humidity;BMP_temperature;BMP_pressure;BME280_temperature;BME280_humidity;BME280_pressure;Samples;Min_cycle;Max_cycle;Signal;HPM_P1;HPM_P2
2021/03/06 00:01:21;;;;;;;7.27;4.10;;;;;;;-4.58;78.45;93456.72;1819035;78;21633;-76
2021/03/06 00:03:48;;;;;;;8.90;3.80;;;;;;;-4.57;78.60;93450.31;1851114;77;21163;-76
2021/03/06 00:06:16;;;;;;;12.40;5.40;;;;;;;-4.60;78.37;93444.82;1797527;78;21208;-76
2021/03/06 00:08:43;;;;;;;10.67;5.57;;;;;;;-4.60;78.60;93444.27;1813963;78;21168;-76
2021/03/06 00:11:11;;;;;;;9.23;5.80;;;;;;;-4.58;78.35;93443.99;1801823;79;21191;-75
2021/03/06 00:13:39;;;;;;;8.33;4.30;;;;;;;-4.54;78.11;93451.59;1808285;78;21160;-76
2021/03/06 00:16:07;;;;;;;5.03;3.30;;;;;;;-4.48;78.12;93455.14;1828181;78;21148;-75
2021/03/06 00:18:34;;;;;;;7.57;2.90;;;;;;;-4.44;78.27;93452.67;1814460;78;21204;-76
2021/03/06 00:21:02;;;;;;;8.67;4.23;;;;;;;-4.42;77.83;93451.84;1797375;78;21166;-76
2021/03/06 00:23:31;;;;;;;12.23;6.17;;;;;;;-4.37;77.61;93453.05;1819179;78;21179;-76
2021/03/06 00:25:59;;;;;;;5.30;4.03;;;;;;;-4.37;77.12;93452.27;1830738;77;22099;-75
2021/03/06 00:28:26;;;;;;;4.53;2.73;;;;;;;-4.36;76.70;93449.84;1819760;78;21192;-76
2021/03/06 00:30:54;;;;;;;7.87;3.60;;;;;;;-4.36;76.82;93441.88;1806624;78;21195;-76
2021/03/06 00:33:21;;;;;;;6.90;3.73;;;;;;;-4.32;76.97;93449.52;1810863;79;21164;-76
2021/03/06 00:35:49;;;;;;;7.57;3.77;;;;;;;-4.31;77.29;93443.89;1797975;79;21051;-76
2021/03/06 00:38:17;;;;;;;7.83;4.13;;;;;;;-4.30;77.21;93441.47;1842609;77;21370;-76
2021/03/06 00:40:44;;;;;;;7.43;4.20;;;;;;;-4.32;76.32;93439.67;1845411;77;21166;-76
2021/03/06 00:43:12;;;;;;;5.37;3.67;;;;;;;-4.33;76.03;93444.72;1851502;77;21471;-76
2021/03/06 00:45:39;;;;;;;6.43;3.60;;;;;;;-4.32;76.48;93452.95;1842662;77;21142;-76
2021/03/06 00:48:07;;;;;;;13.40;5.43;;;;;;;-4.32;76.51;93448.96;1800304;79;21190;-76
2021/03/06 00:50:35;;;;;;;6.30;3.63;;;;;;;-4.31;76.41;93450.52;1839879;77;21419;-76
2021/03/06 00:53:04;;;;;;;8.70;4.03;;;;;;;-4.28;76.62;93449.15;1800547;79;21168;-76
2021/03/06 00:55:33;;;;;;;8.17;3.70;;;;;;;-4.26;76.77;93446.95;1840319;78;21137;-75
2021/03/06 00:58:01;;;;;;;7.67;3.60;;;;;;;-4.23;76.37;93451.67;1811063;79;21130;-76
2021/03/06 01:00:30;;;;;;;6.37;3.30;;;;;;;-4.23;75.59;93455.66;1839958;78;21117;-76
2021/03/06 01:02:59;;;;;;;6.37;3.20;;;;;;;-4.22;74.57;93456.67;1840821;77;21193;-76
2021/03/06 01:05:27;;;;;;;6.90;3.40;;;;;;;-4.27;74.32;93452.81;1834984;78;21165;-76
2021/03/06 01:07:55;;;;;;;5.67;3.10;;;;;;;-4.26;74.95;93447.74;1853442;77;21159;-76
2021/03/06 01:10:27;;;;;;;6.60;3.10;;;;;;;-4.23;74.98;93451.67;1801077;79;21052;-75
2021/03/06 01:12:54;;;;;;;6.03;3.50;;;;;;;-4.23;74.64;93444.48;1833983;78;21092;-75
2021/03/06 01:15:22;;;;;;;7.47;4.07;;;;;;;-4.22;73.58;93447.38;1826986;78;21628;-76
2021/03/06 01:17:50;;;;;;;6.77;3.77;;;;;;;-4.29;73.38;93448.34;1822641;78;21199;-76
2021/03/06 01:20:18;;;;;;;6.27;3.20;;;;;;;-4.28;73.65;93455.78;1842033;77;21211;-75
2021/03/06 01:22:46;;;;;;;8.70;2.87;;;;;;;-4.28;73.30;93454.45;1809354;79;21190;-75
2021/03/06 01:25:14;;;;;;;7.10;3.40;;;;;;;-4.30;73.31;93449.43;1829552;77;21171;-76
2021/03/06 01:27:41;;;;;;;7.23;3.50;;;;;;;-4.31;73.93;93445.77;1818734;78;21183;-76
2021/03/06 01:30:10;;;;;;;6.93;3.00;;;;;;;-4.33;73.31;93450.03;1830000;78;21570;-76
2021/03/06 01:32:37;;;;;;;6.27;2.87;;;;;;;-4.31;73.30;93449.20;1825625;76;21168;-75
2021/03/06 01:35:08;;;;;;;9.67;3.87;;;;;;;-4.26;73.41;93453.05;1818410;78;21189;-76
2021/03/06 01:37:37;;;;;;;5.60;3.43;;;;;;;-4.25;73.36;93456.48;1786124;80;21175;-76
2021/03/06 01:40:17;;;;;;;8.67;4.10;;;;;;;-4.29;72.23;93459.50;1837753;77;21411;-76
2021/03/06 01:42:44;;;;;;;7.33;3.43;;;;;;;-4.33;72.29;93460.65;1806886;79;21181;-75
2021/03/06 01:45:13;;;;;;;7.20;3.47;;;;;;;-4.32;72.35;93466.22;1784931;80;21260;-75
2021/03/06 01:47:40;;;;;;;10.07;3.30;;;;;;;-4.32;71.94;93472.08;1818569;77;21606;-76
2021/03/06 01:50:09;;;;;;;4.50;3.20;;;;;;;-4.33;72.40;93473.92;1820299;77;21139;-75
2021/03/06 01:52:36;;;;;;;7.20;3.67;;;;;;;-4.33;73.04;93478.45;1820263;78;21863;-76
2021/03/06 01:55:05;;;;;;;6.90;4.27;;;;;;;-4.39;73.24;93476.47;1811349;78;21198;-76
2021/03/06 01:57:32;;;;;;;7.13;3.43;;;;;;;-4.42;73.03;93483.16;1811334;79;21207;-76
2021/03/06 02:00:00;;;;;;;10.87;5.17;;;;;;;-4.42;72.81;93486.35;1819539;78;21091;-75
2021/03/06 02:02:27;;;;;;;15.07;5.60;;;;;;;-4.43;73.36;93483.46;1834703;76;21127;-75
2021/03/06 02:04:55;;;;;;;9.43;4.30;;;;;;;-4.45;73.84;93492.25;1819043;78;21431;-75
2021/03/06 02:07:22;;;;;;;7.63;3.90;;;;;;;-4.51;72.80;93488.94;1816318;77;21205;-76
2021/03/06 02:09:50;;;;;;;8.50;3.60;;;;;;;-4.53;72.63;93491.09;1840079;77;21215;-76
2021/03/06 02:12:55;;;;;;;4.67;3.13;;;;;;;-4.55;72.38;93490.63;1834440;78;21135;-75
2021/03/06 02:16:05;;;;;;;7.47;4.00;;;;;;;-4.63;71.32;93488.66;1825011;78;21186;-75
2021/03/06 02:18:39;;;;;;;6.17;3.50;;;;;;;-4.74;71.51;93489.95;1813515;78;21489;-76
2021/03/06 02:21:51;;;;;;;91.23;44.57;;;;;;;-4.78;72.02;93491.09;1814471;78;21194;-76
2021/03/06 02:24:42;;;;;;;10.80;5.60;;;;;;;-4.76;72.09;93484.95;1810307;79;21149;-74
2021/03/06 02:27:40;;;;;;;9.23;4.07;;;;;;;-4.73;72.50;93486.23;1783751;79;21164;-75
2021/03/06 02:30:09;;;;;;;30.33;16.47;;;;;;;-4.68;72.56;93486.13;1758389;78;21186;-74
2021/03/06 02:32:41;;;;;;;9.67;4.60;;;;;;;-4.70;71.96;93494.91;1818123;78;21695;-74
2021/03/06 02:35:23;;;;;;;16.47;9.63;;;;;;;-4.71;71.57;93491.47;1785302;79;21474;-75
2021/03/06 02:38:07;;;;;;;9.67;5.60;;;;;;;-4.75;72.08;93501.66;1812638;79;21163;-75
2021/03/06 02:40:39;;;;;;;10.13;5.50;;;;;;;-4.73;72.14;93501.61;1769842;79;21177;-75
2021/03/06 02:43:09;;;;;;;11.43;5.30;;;;;;;-4.77;72.07;93504.62;1782350;78;21903;-74
2021/03/06 02:45:37;;;;;;;12.77;8.27;;;;;;;-4.76;72.88;93500.09;1811737;78;21428;-76
2021/03/06 02:48:06;;;;;;;10.73;6.20;;;;;;;-4.74;72.94;93508.01;1780563;79;21195;-76
2021/03/06 02:50:35;;;;;;;6.83;3.80;;;;;;;-4.74;73.00;93505.36;1768158;80;21608;-75
2021/03/06 02:53:02;;;;;;;26.70;14.03;;;;;;;-4.74;72.32;93505.88;1756312;81;21756;-74
2021/03/06 02:55:31;;;;;;;37.37;24.97;;;;;;;-4.79;72.32;93509.42;1802724;79;21061;-74
2021/03/06 02:58:22;;;;;;;37.03;24.80;;;;;;;-4.78;72.54;93508.33;1784821;78;21860;-74
2021/03/06 03:01:14;;;;;;;30.27;20.43;;;;;;;-4.72;72.70;93511.68;1775335;79;21096;-75
2021/03/06 03:04:05;;;;;;;26.77;16.80;;;;;;;-4.62;73.06;93516.00;1803263;79;21100;-75
2021/03/06 03:06:36;;;;;;;23.63;17.10;;;;;;;-4.62;72.73;93514.13;1769230;79;21690;-75
2021/03/06 03:09:20;;;;;;;23.20;16.93;;;;;;;-4.59;72.98;93519.36;1786228;79;21184;-74
2021/03/06 03:12:07;;;;;;;7.60;5.37;;;;;;;-4.62;71.92;93514.13;1792670;79;21991;-75
2021/03/06 03:14:38;;;;;;;5.73;3.77;;;;;;;-4.64;71.13;93513.08;1803400;79;21153;-75
2021/03/06 03:17:11;;;;;;;8.37;3.57;;;;;;;-4.66;70.75;93528.53;1798372;79;21187;-75
2021/03/06 03:19:51;;;;;;;7.37;3.93;;;;;;;-4.70;70.68;93532.05;1777757;78;21067;-75
2021/03/06 03:22:18;;;;;;;6.33;3.13;;;;;;;-4.74;70.54;93530.56;1804154;78;21167;-75
2021/03/06 03:24:46;;;;;;;5.23;2.83;;;;;;;-4.78;70.12;93536.73;1813516;77;21554;-75
2021/03/06 03:27:13;;;;;;;7.07;2.80;;;;;;;-4.81;70.08;93538.64;1795719;79;21185;-74
2021/03/06 03:29:43;;;;;;;5.13;2.90;;;;;;;-4.84;70.03;93549.88;1777554;80;21195;-75
2021/03/06 03:32:11;;;;;;;4.07;2.93;;;;;;;-4.90;69.87;93546.52;1821057;78;21137;-75
2021/03/06 03:34:39;;;;;;;7.83;3.00;;;;;;;-4.96;69.99;93546.39;1810206;79;21111;-75
2021/03/06 03:37:09;;;;;;;3.97;2.80;;;;;;;-4.95;70.37;93553.26;1806289;79;22231;-75
2021/03/06 03:39:37;;;;;;;5.13;2.80;;;;;;;-4.93;69.92;93553.22;1785753;80;21196;-75
2021/03/06 03:42:06;;;;;;;7.13;3.27;;;;;;;-4.89;70.06;93557.36;1778205;79;21121;-75
2021/03/06 03:44:35;;;;;;;4.77;2.97;;;;;;;-4.84;70.26;93559.16;1765179;81;21122;-75
2021/03/06 03:47:03;;;;;;;5.57;3.73;;;;;;;-4.79;71.19;93561.70;1767648;80;21141;-75
2021/03/06 03:49:31;;;;;;;6.57;3.40;;;;;;;-4.77;71.62;93566.19;1765539;81;21353;-75
2021/03/06 03:51:58;;;;;;;7.10;4.00;;;;;;;-4.74;72.25;93565.56;1770952;79;21219;-75
2021/03/06 03:54:26;;;;;;;8.30;4.30;;;;;;;-4.78;72.56;93575.98;1774583;79;21663;-75
2021/03/06 03:56:54;;;;;;;12.10;5.00;;;;;;;-4.81;72.76;93572.62;1764508;80;21208;-75
2021/03/06 03:59:21;;;;;;;9.47;4.53;;;;;;;-4.90;73.11;93569.84;1766896;81;21197;-75
2021/03/06 04:01:49;;;;;;;7.80;4.67;;;;;;;-5.01;73.21;93576.97;1783941;78;21248;-75
2021/03/06 04:04:30;;;;;;;7.07;4.73;;;;;;;-4.99;73.47;93584.10;1776437;80;21192;-75
2021/03/06 04:07:00;;;;;;;6.30;3.73;;;;;;;-5.03;73.42;93585.23;1765879;80;22132;-75
2021/03/06 04:09:31;;;;;;;8.23;3.97;;;;;;;-5.09;73.44;93586.94;1765170;79;21161;-75
2021/03/06 04:11:59;;;;;;;8.73;3.70;;;;;;;-5.15;73.79;93588.36;1767664;80;21157;-75
2021/03/06 04:14:27;;;;;;;9.80;4.07;;;;;;;-5.13;74.09;93592.03;1771512;80;21255;-76
2021/03/06 04:16:55;;;;;;;9.43;4.70;;;;;;;-5.08;74.21;93593.80;1824905;78;21172;-75
2021/03/06 04:19:23;;;;;;;10.23;5.67;;;;;;;-5.11;74.21;93588.56;1826557;77;21164;-75
2021/03/06 04:21:50;;;;;;;13.17;6.17;;;;;;;-5.14;74.16;93590.47;1789240;79;21084;-75
2021/03/06 04:24:18;;;;;;;15.27;5.00;;;;;;;-5.20;74.24;93599.03;1814280;78;21139;-75
2021/03/06 04:26:49;;;;;;;8.93;5.37;;;;;;;-5.27;74.52;93608.45;1742266;82;21584;-75
2021/03/06 04:29:20;;;;;;;11.03;4.90;;;;;;;-5.37;74.55;93604.13;1805861;79;21594;-75
2021/03/06 04:31:48;;;;;;;12.10;4.13;;;;;;;-5.45;74.76;93602.92;1798007;79;21195;-75
2021/03/06 04:34:16;;;;;;;10.30;4.30;;;;;;;-5.56;74.37;93611.34;1756264;79;21203;-75
2021/03/06 04:36:44;;;;;;;13.10;4.97;;;;;;;-5.64;75.04;93615.44;1852327;76;21160;-75
2021/03/06 04:39:12;;;;;;;10.77;6.03;;;;;;;-5.61;75.73;93617.48;1804946;79;21645;-75
2021/03/06 04:41:39;;;;;;;18.00;6.40;;;;;;;-5.59;75.96;93618.53;1773576;80;21092;-75
2021/03/06 04:44:08;;;;;;;15.87;6.67;;;;;;;-5.63;75.81;93619.11;1788436;79;21170;-74
2021/03/06 04:46:36;;;;;;;10.83;4.83;;;;;;;-5.66;75.52;93624.98;1807366;77;21135;-75
2021/03/06 04:49:04;;;;;;;14.90;5.30;;;;;;;-5.73;75.75;93622.45;1814596;77;21147;-75
2021/03/06 04:51:31;;;;;;;11.20;3.50;;;;;;;-5.74;75.99;93623.53;1850547;77;22017;-74
2021/03/06 04:53:59;;;;;;;11.30;3.97;;;;;;;-5.84;75.81;93621.80;1843271;77;21487;-75
2021/03/06 04:56:26;;;;;;;7.10;3.17;;;;;;;-5.99;76.18;93626.81;1811794;78;21590;-75
2021/03/06 04:58:54;;;;;;;9.67;2.97;;;;;;;-6.08;76.61;93618.49;1812136;79;21138;-75
2021/03/06 05:01:21;;;;;;;6.87;2.70;;;;;;;-6.17;76.89;93629.73;1748319;80;21212;-75
2021/03/06 05:03:49;;;;;;;7.77;3.27;;;;;;;-6.20;77.36;93628.97;1740660;81;21638;-75
2021/03/06 05:06:16;;;;;;;7.20;2.87;;;;;;;-6.23;77.20;93628.75;1747072;80;21719;-75
2021/03/06 05:08:44;;;;;;;6.90;3.40;;;;;;;-6.34;77.40;93632.06;1713935;82;21217;-75
2021/03/06 05:11:12;;;;;;;6.97;3.20;;;;;;;-6.39;77.92;93634.78;1818471;77;21175;-75
2021/03/06 05:13:43;;;;;;;6.63;3.17;;;;;;;-6.38;78.08;93637.67;1761061;78;21185;-75
2021/03/06 05:16:10;;;;;;;9.30;3.30;;;;;;;-6.43;78.31;93637.72;1714572;81;21393;-74
2021/03/06 05:18:38;;;;;;;8.03;3.00;;;;;;;-6.47;78.55;93644.66;1839441;77;21163;-75
2021/03/06 05:21:06;;;;;;;8.47;4.10;;;;;;;-6.51;78.67;93651.05;1804457;79;21139;-74
2021/03/06 05:23:33;;;;;;;17.33;7.70;;;;;;;-6.51;78.81;93650.26;1750484;79;21175;-75
2021/03/06 05:26:01;;;;;;;8.10;4.33;;;;;;;-6.47;79.23;93651.27;1745791;82;21529;-75
2021/03/06 05:28:28;;;;;;;6.83;2.93;;;;;;;-6.35;79.37;93647.70;1745940;82;21190;-75
2021/03/06 05:30:57;;;;;;;8.53;3.30;;;;;;;-6.27;79.15;93650.25;1783216;80;21204;-75
2021/03/06 05:33:25;;;;;;;7.00;3.27;;;;;;;-6.30;78.68;93654.78;1773499;80;21147;-76
2021/03/06 05:35:55;;;;;;;6.73;3.33;;;;;;;-6.39;78.60;93658.60;1767012;81;21124;-76
2021/03/06 05:38:23;;;;;;;6.00;3.50;;;;;;;-6.44;78.80;93654.67;1743787;82;21490;-75
2021/03/06 05:40:50;;;;;;;7.43;3.40;;;;;;;-6.20;80.22;93660.73;1745095;82;22086;-76
2021/03/06 05:43:18;;;;;;;7.67;4.43;;;;;;;-5.59;81.37;93667.55;1749133;81;21286;-76
2021/03/06 05:45:47;;;;;;;19.80;3.77;;;;;;;-4.86;80.05;93664.76;1759549;81;21159;-76
2021/03/06 05:48:16;;;;;;;8.60;4.13;;;;;;;-4.27;78.84;93667.89;1771370;81;21180;-76
2021/03/06 05:50:45;;;;;;;4.17;2.87;;;;;;;-3.73;77.75;93676.06;1781538;79;21629;-76
2021/03/06 05:53:15;;;;;;;6.10;3.33;;;;;;;-3.16;76.17;93669.71;1719701;80;21380;-76
2021/03/06 05:55:45;;;;;;;5.33;3.13;;;;;;;-2.88;72.99;93681.56;1719543;79;21710;-76
2021/03/06 05:58:12;;;;;;;5.03;2.87;;;;;;;-2.86;71.62;93684.69;1781214;79;21176;-75
2021/03/06 06:00:41;;;;;;;7.60;3.10;;;;;;;-2.92;70.42;93687.25;1820155;78;21634;-76
2021/03/06 06:03:09;;;;;;;5.07;3.23;;;;;;;-2.86;70.99;93693.45;1809460;79;21621;-76
2021/03/06 06:05:37;;;;;;;5.27;2.80;;;;;;;-2.57;70.81;93691.67;1785173;79;21372;-76
2021/03/06 06:08:05;;;;;;;6.43;2.70;;;;;;;-2.45;68.18;93701.74;1711367;83;21493;-76
2021/03/06 06:10:33;;;;;;;7.60;3.00;;;;;;;-2.62;68.02;93701.67;1728838;82;21181;-76
2021/03/06 06:13:00;;;;;;;8.57;5.03;;;;;;;-2.80;67.87;93710.88;1780141;79;21184;-76
2021/03/06 06:15:28;;;;;;;11.17;7.57;;;;;;;-3.01;67.64;93716.45;1807985;79;21143;-76
2021/03/06 06:17:56;;;;;;;8.83;4.93;;;;;;;-3.31;67.83;93721.41;1826369;78;22040;-76
2021/03/06 06:20:24;;;;;;;8.00;4.40;;;;;;;-3.52;68.35;93719.73;1826858;78;21242;-76
2021/03/06 06:23:16;;;;;;;8.87;5.23;;;;;;;-3.55;68.70;93722.20;1838050;77;21586;-76
2021/03/06 06:25:45;;;;;;;5.07;3.87;;;;;;;-3.54;69.00;93721.89;1797344;79;21261;-76
2021/03/06 06:28:15;;;;;;;7.23;3.77;;;;;;;-3.26;69.82;93728.48;1746766;81;21234;-76
2021/03/06 06:30:42;;;;;;;5.27;3.07;;;;;;;-2.89;71.99;93730.56;1760031;81;22642;-76
2021/03/06 06:33:10;;;;;;;5.53;3.13;;;;;;;-2.63;68.12;93735.50;1754313;81;21227;-77
2021/03/06 06:35:42;;;;;;;6.33;3.83;;;;;;;-2.70;66.96;93733.81;1808500;77;21134;-77
2021/03/06 06:38:09;;;;;;;8.07;3.63;;;;;;;-2.83;67.10;93739.43;1810423;77;21637;-77
2021/03/06 06:40:38;;;;;;;7.17;2.47;;;;;;;-2.87;67.05;93754.98;1801360;77;21163;-77
2021/03/06 06:43:26;;;;;;;17.63;9.53;;;;;;;-2.90;66.95;93756.91;1842422;77;21530;-77
2021/03/06 06:45:53;;;;;;;8.20;3.67;;;;;;;-3.00;68.14;93753.96;1757256;81;21207;-78
2021/03/06 06:48:22;;;;;;;8.30;3.37;;;;;;;-3.05;68.12;93756.72;1726181;83;21187;-76
2021/03/06 06:50:49;;;;;;;7.93;3.00;;;;;;;-3.07;67.80;93766.89;1792888;79;21372;-76
2021/03/06 06:53:25;;;;;;;6.13;3.30;;;;;;;-3.01;67.95;93763.01;1749806;81;21205;-76
2021/03/06 06:55:55;;;;;;;16.27;7.83;;;;;;;-2.84;68.04;93759.16;1795868;78;21430;-76
2021/03/06 06:58:34;;;;;;;9.83;6.00;;;;;;;-2.75;68.91;93766.64;1803517;78;21194;-77
2021/03/06 07:01:22;;;;;;;17.07;9.00;;;;;;;-2.73;68.50;93771.14;1809767;79;21171;-77
2021/03/06 07:03:52;;;;;;;12.57;7.27;;;;;;;-2.82;67.45;93778.28;1754316;81;21272;-77
2021/03/06 07:06:21;;;;;;;13.97;7.60;;;;;;;-2.96;68.62;93777.00;1734888;80;21258;-78
2021/03/06 07:08:49;;;;;;;21.43;9.40;;;;;;;-3.04;68.82;93764.42;1773343;80;22240;-77
2021/03/06 07:11:25;;;;;;;17.63;8.93;;;;;;;-3.09;68.94;93769.05;1775902;79;21776;-79
2021/03/06 07:13:54;;;;;;;14.17;7.77;;;;;;;-3.05;69.56;93777.45;1735566;80;21255;-78
2021/03/06 07:16:21;;;;;;;15.10;7.47;;;;;;;-2.82;70.29;93784.13;1812466;79;21693;-79
2021/03/06 07:19:02;;;;;;;18.60;9.93;;;;;;;-2.63;69.52;93783.43;1808061;78;21707;-79
2021/03/06 07:21:49;;;;;;;21.77;12.30;;;;;;;-2.52;68.91;93780.77;1756442;80;49406;-78
2021/03/06 07:24:19;;;;;;;23.47;11.87;;;;;;;-2.27;68.80;93791.30;1752260;80;21235;-78
2021/03/06 07:26:51;;;;;;;16.00;8.40;;;;;;;-2.09;67.99;93792.19;1772855;80;21139;-78
2021/03/06 07:29:17;;;;;;;11.20;5.47;;;;;;;-1.99;67.80;93793.81;1782410;79;21195;-79
2021/03/06 07:31:49;;;;;;;8.05;4.30;;;;;;;-1.91;66.14;93796.27;1825536;77;21143;-78
2021/03/06 07:34:20;;;;;;;8.37;4.63;;;;;;;-1.87;65.70;93795.89;1798038;77;21698;-79
2021/03/06 07:36:49;;;;;;;5.80;4.00;;;;;;;-1.82;65.66;93792.53;1839699;77;21461;-78
2021/03/06 07:39:17;;;;;;;6.17;3.90;;;;;;;-1.78;65.05;93786.82;1836803;77;21243;-78
2021/03/06 07:41:56;;;;;;;9.17;4.77;;;;;;;-1.77;63.94;93792.94;1842631;77;21650;-78
2021/03/06 07:44:25;;;;;;;6.73;4.03;;;;;;;-1.82;64.06;93789.08;1800470;79;22165;-78
2021/03/06 07:46:54;;;;;;;8.93;4.97;;;;;;;-1.87;63.63;93783.91;1800464;79;22245;-79
2021/03/06 07:49:25;;;;;;;6.83;4.20;;;;;;;-1.98;64.59;93791.38;1828284;78;21175;-78
2021/03/06 07:51:54;;;;;;;7.13;4.60;;;;;;;-2.00;64.94;93793.55;1807274;79;21159;-79
2021/03/06 07:54:22;;;;;;;8.67;5.67;;;;;;;-1.98;64.88;93799.38;1708926;80;21539;-78
2021/03/06 07:56:54;;;;;;;8.10;4.60;;;;;;;-1.91;65.12;93808.27;1782735;79;21142;-78
2021/03/06 07:59:54;;;;;;;9.48;4.75;;;;;;;-1.87;63.71;93809.22;1788815;80;22085;-79
2021/03/06 08:02:34;;;;;;;6.80;4.60;;;;;;;-1.97;64.59;93811.59;1780621;79;21265;-79
2021/03/06 08:05:06;;;;;;;10.50;6.03;;;;;;;-2.08;65.12;93812.41;1757335;81;21226;-78
2021/03/06 08:07:41;;;;;;;11.10;6.77;;;;;;;-2.12;66.01;93815.44;1751569;80;21191;-78
2021/03/06 08:10:13;;;;;;;9.87;5.97;;;;;;;-1.91;66.12;93815.72;1709075;83;21203;-78
2021/03/06 08:12:41;;;;;;;10.50;5.10;;;;;;;-1.53;65.88;93823.23;1781283;79;22702;-78
2021/03/06 08:15:32;;;;;;;9.33;5.67;;;;;;;-1.14;64.92;93825.05;1735763;79;21215;-78
2021/03/06 08:18:01;;;;;;;8.50;5.92;;;;;;;-0.83;63.75;93820.13;1721004;81;21537;-78
2021/03/06 08:20:32;;;;;;;9.23;6.37;;;;;;;-0.70;62.42;93822.43;1743924;81;21112;-78
2021/03/06 08:23:21;;;;;;;8.75;5.40;;;;;;;-0.57;61.55;93824.92;1781974;78;21069;-79
2021/03/06 08:26:27;;;;;;;8.63;5.95;;;;;;;-0.09;61.96;93829.83;1825284;78;21485;-79
2021/03/06 08:28:59;;;;;;;11.90;6.00;;;;;;;0.51;59.35;93823.51;1731803;81;21200;-79
2021/03/06 08:31:29;;;;;;;9.90;5.58;;;;;;;1.15;56.81;93825.98;1729335;81;21308;-79
2021/03/06 08:34:30;;;;;;;9.03;5.50;;;;;;;1.61;56.17;93820.75;1779798;80;21614;-80
2021/03/06 08:37:22;;;;;;;9.58;5.92;;;;;;;1.82;53.43;93826.10;1786977;79;21184;-79
2021/03/06 08:40:01;;;;;;;6.12;4.22;;;;;;;1.62;52.93;93831.16;1787832;80;22239;-80
2021/03/06 08:42:38;;;;;;;10.32;5.70;;;;;;;1.70;52.78;93831.64;1786410;80;21091;-81
2021/03/06 08:45:16;;;;;;;7.97;4.80;;;;;;;2.27;51.99;93827.46;1758912;80;21191;-82
2021/03/06 08:47:58;;;;;;;6.10;4.00;;;;;;;3.37;48.32;93829.36;1782496;79;21178;-83
2021/03/06 08:50:27;;;;;;;5.67;4.08;;;;;;;3.37;48.32;93829.36;1770911;78;21710;-81
2021/03/06 08:53:01;;;;;;;6.40;3.62;;;;;;;3.73;48.21;93828.50;1719515;82;21383;-83
2021/03/06 08:55:31;;;;;;;7.10;4.10;;;;;;;4.17;46.98;93823.13;1746075;81;21249;-82
2021/03/06 08:58:03;;;;;;;4.10;3.35;;;;;;;4.71;46.95;93825.30;1803509;78;21234;-83
2021/03/06 09:00:42;;;;;;;4.37;3.05;;;;;;;5.14;44.15;93834.95;1787198;78;21211;-81
2021/03/06 09:03:20;;;;;;;3.47;2.95;;;;;;;5.33;42.87;93833.65;1779229;80;21781;-81
2021/03/06 09:05:50;;;;;;;4.15;3.20;;;;;;;5.45;41.51;93836.80;1749672;80;22235;-83
2021/03/06 09:08:21;;;;;;;5.15;3.40;;;;;;;5.06;40.21;93840.17;1796681;77;21183;-84
2021/03/06 09:10:52;;;;;;;14.28;12.95;;;;;;;4.47;41.64;93841.03;1839590;77;21088;-82
2021/03/06 09:13:22;;;;;;;7.95;6.72;;;;;;;4.20;41.74;93842.64;1807735;79;21120;-81
2021/03/06 09:16:03;;;;;;;7.55;5.35;;;;;;;4.24;40.68;93847.55;1803341;79;21116;-82
2021/03/06 09:18:37;;;;;;;4.35;3.05;;;;;;;3.95;37.38;93847.91;1737487;79;21374;-82
2021/03/06 09:21:15;;;;;;;5.55;3.05;;;;;;;3.69;40.60;93852.39;1718290;82;21199;-82
2021/03/06 09:23:44;;;;;;;3.80;2.35;;;;;;;3.92;41.08;93853.42;1786178;78;21149;-82
2021/03/06 09:26:22;;;;;;;3.10;2.80;;;;;;;4.16;41.58;93859.83;1833812;77;21298;-83
2021/03/06 09:28:52;;;;;;;4.08;2.12;;;;;;;4.27;40.40;93852.25;1754785;78;21165;-83
2021/03/06 09:31:26;;;;;;;2.02;1.70;;;;;;;4.18;40.32;93858.94;1819929;78;21123;-83
2021/03/06 09:33:56;;;;;;;2.25;1.47;;;;;;;3.65;38.05;93866.51;1737735;81;21208;-83
2021/03/06 09:36:30;;;;;;;2.83;1.50;;;;;;;3.04;40.72;93861.20;1775410;79;21190;-82
2021/03/06 09:39:00;;;;;;;;;;;;;;;2.75;42.18;93863.55;1812882;78;21612;-82
2021/03/06 09:41:31;;;;;;;2.15;1.70;;;;;;;2.48;42.27;93870.88;1827749;78;20212;-82
2021/03/06 09:44:01;;;;;;;3.20;1.80;;;;;;;2.18;43.11;93876.39;1827769;78;22050;-82
2021/03/06 09:46:32;;;;;;;2.62;1.80;;;;;;;1.84;42.84;93877.49;1795953;79;21497;-81
2021/03/06 09:49:06;;;;;;;5.50;2.22;;;;;;;1.46;43.68;93882.44;1811913;79;21127;-81
2021/03/06 09:51:50;;;;;;;2.98;1.72;;;;;;;1.11;45.50;93888.58;1773464;79;21216;-83
2021/03/06 09:54:25;;;;;;;2.27;1.70;;;;;;;0.82;46.61;93881.31;1805631;78;21101;-84
2021/03/06 09:57:02;;;;;;;1.95;1.00;;;;;;;0.60;45.78;93887.16;1796809;79;22175;-80
2021/03/06 09:59:37;;;;;;;1.55;1.15;;;;;;;0.50;46.71;93888.06;1814726;77;21176;-84
2021/03/06 10:02:08;;;;;;;2.25;1.50;;;;;;;0.47;45.46;93886.80;1826064;77;21184;-81
2021/03/06 10:04:36;;;;;;;1.98;1.37;;;;;;;0.42;46.08;93896.34;1808828;78;21193;-81
2021/03/06 10:07:11;;;;;;;10.35;6.60;;;;;;;0.34;46.71;93901.95;1781005;79;21940;-81
2021/03/06 10:09:39;;;;;;;13.40;8.80;;;;;;;0.24;45.51;93904.95;1738259;79;21531;-81
2021/03/06 10:12:16;;;;;;;4.65;3.30;;;;;;;0.10;46.60;93909.14;1798744;79;21628;-81
2021/03/06 10:14:48;;;;;;;3.50;2.45;;;;;;;0.04;47.79;93904.27;1818452;78;21195;-80
2021/03/06 10:17:24;;;;;;;5.03;2.92;;;;;;;-0.06;48.17;93908.85;1840490;77;21106;-81
2021/03/06 10:19:55;;;;;;;3.80;1.82;;;;;;;-0.02;48.03;93907.11;1815160;77;21121;-81
2021/03/06 10:22:22;;;;;;;0.82;0.78;;;;;;;0.04;48.62;93908.28;1807018;79;21358;-81
2021/03/06 10:25:03;;;;;;;1.72;1.40;;;;;;;0.01;47.72;93911.61;1803476;79;21602;-80
2021/03/06 10:27:44;;;;;;;10.38;6.53;;;;;;;0.05;48.48;93907.98;1801754;79;21590;-80
2021/03/06 10:30:25;;;;;;;9.58;7.28;;;;;;;0.07;47.68;93907.09;1806393;77;21180;-82
2021/03/06 10:33:05;;;;;;;7.12;5.92;;;;;;;0.04;46.30;93910.43;1734477;81;21188;-80
2021/03/06 10:35:42;;;;;;;6.25;4.60;;;;;;;-0.09;47.50;93918.05;1727831;79;22268;-80
2021/03/06 10:38:12;;;;;;;2.27;1.30;;;;;;;-0.15;46.54;93920.64;1810758;79;21163;-80
2021/03/06 10:40:55;;;;;;;3.40;1.50;;;;;;;-0.21;47.29;93925.38;1805637;79;21143;-80
2021/03/06 10:43:40;;;;;;;47.67;24.65;;;;;;;-0.25;48.10;93922.54;1836903;77;21488;-80
2021/03/06 10:46:10;;;;;;;;;;;;;;;-0.27;49.84;93922.61;1756149;78;21183;-81
2021/03/06 10:48:39;;;;;;;3.60;2.58;;;;;;;-0.23;49.49;93922.77;1754880;80;21524;-80
2021/03/06 10:51:08;;;;;;;2.87;2.08;;;;;;;-0.26;47.16;93918.30;1735864;82;21194;-80
2021/03/06 10:53:36;;;;;;;2.62;1.30;;;;;;;-0.21;47.39;93916.02;1773953;80;21585;-81
2021/03/06 10:56:07;;;;;;;4.03;2.10;;;;;;;-0.14;49.11;93911.54;1789686;78;21626;-81
2021/03/06 10:58:47;;;;;;;5.60;2.47;;;;;;;-0.07;49.48;93913.19;1777335;79;21188;-80
2021/03/06 11:01:16;;;;;;;3.25;1.70;;;;;;;-0.02;48.42;93911.13;1782836;79;21728;-80
2021/03/06 11:03:49;;;;;;;3.55;1.90;;;;;;;0.05;48.68;93912.55;1754672;79;21194;-81
2021/03/06 11:06:18;;;;;;;2.80;2.10;;;;;;;0.07;48.53;93914.34;1717110;82;21207;-80
2021/03/06 11:09:05;;;;;;;3.52;2.02;;;;;;;0.05;48.16;93907.20;1780821;80;21276;-80
2021/03/06 11:11:34;;;;;;;1.87;1.47;;;;;;;-0.05;47.84;93903.73;1777478;77;21654;-80
2021/03/06 11:14:03;;;;;;;3.60;3.02;;;;;;;-0.18;48.51;93907.93;1853142;77;21351;-80
2021/03/06 11:16:40;;;;;;;2.65;2.25;;;;;;;-0.29;49.44;93896.21;1762618;78;21131;-81
2021/03/06 11:19:09;;;;;;;3.27;2.17;;;;;;;-0.37;49.45;93897.55;1809666;78;21149;-80
2021/03/06 11:21:38;;;;;;;3.47;2.40;;;;;;;-0.45;50.60;93896.45;1819830;77;22172;-80
2021/03/06 11:24:09;;;;;;;2.98;1.90;;;;;;;-0.53;50.95;93899.36;1822746;77;21160;-80
2021/03/06 11:26:36;;;;;;;5.12;2.60;;;;;;;-0.58;49.30;93896.03;1803321;77;21638;-81
2021/03/06 11:29:04;;;;;;;3.55;2.30;;;;;;;-0.67;50.48;93893.92;1796317;79;21234;-81
2021/03/06 11:31:34;;;;;;;5.10;2.50;;;;;;;-0.67;51.11;93892.59;1787330;79;21220;-81
2021/03/06 11:34:03;;;;;;;2.10;1.70;;;;;;;-0.59;51.21;93888.58;1782070;77;21205;-81
2021/03/06 11:36:32;;;;;;;3.75;2.42;;;;;;;-0.48;50.35;93886.39;1798716;78;21227;-80
2021/03/06 11:38:59;;;;;;;3.65;2.00;;;;;;;-0.25;49.93;93882.45;1790488;80;21570;-81
2021/03/06 11:41:27;;;;;;;2.83;2.12;;;;;;;-0.05;49.40;93877.55;1728455;82;21209;-81
2021/03/06 11:43:57;;;;;;;3.00;2.00;;;;;;;0.02;47.44;93874.41;1794508;79;21195;-81
2021/03/06 11:46:24;;;;;;;3.02;1.50;;;;;;;0.03;49.25;93874.08;1768999;80;21176;-81
2021/03/06 11:48:54;;;;;;;2.20;1.52;;;;;;;0.08;48.52;93876.59;1829511;77;21187;-81
2021/03/06 11:51:24;;;;;;;3.08;1.60;;;;;;;0.19;49.20;93877.05;1781278;79;21196;-81
2021/03/06 11:53:51;;;;;;;30.70;19.85;;;;;;;0.27;48.77;93877.58;1811218;79;21313;-80
2021/03/06 11:56:21;;;;;;;64.80;55.20;;;;;;;0.34;46.13;93873.05;1748510;82;21170;-79